sensor_id;sensor_type;location;lat;lon;timestamp;pressure;altitude;pressure_sealevel;temperature;humidity
69982;BME280;57319;56.274;43.980;2023-10-08T00:02:42;95877.91;;;4.75;100.00
69982;BME280;57319;56.274;43.980;2023-10-08T00:05:07;95875.06;;;4.81;100.00
69982;BME280;57319;56.274;43.980;2023-10-08T00:07:33;95861.34;;;4.84;100.00
69982;BME280;57319;56.274;43.980;2023-10-08T00:09:59;95862.06;;;4.86;100.00
69982;BME280;57319;56.274;43.980;2023-10-08T00:12:27;95861.97;;;4.87;100.00
69982;BME280;57319;56.274;43.980;2023-10-08T00:14:54;95856.06;;;4.87;100.00
69982;BME280;57319;56.274;43.980;2023-10-08T00:17:20;95864.53;;;4.87;100.00
69982;BME280;57319;56.274;43.980;2023-10-08T00:19:46;95869.72;;;4.86;100.00
69982;BME280;57319;56.274;43.980;2023-10-08T00:22:17;95860.28;;;4.88;100.00
69982;BME280;57319;56.274;43.980;2023-10-08T00:24:43;95856.81;;;4.89;100.00
69982;BME280;57319;56.274;43.980;2023-10-08T00:27:11;95846.47;;;4.92;100.00
69982;BME280;57319;56.274;43.980;2023-10-08T00:29:40;95855.81;;;4.91;100.00
69982;BME280;57319;56.274;43.980;2023-10-08T00:32:08;95847.13;;;4.96;100.00
69982;BME280;57319;56.274;43.980;2023-10-08T00:34:41;95842.69;;;4.99;100.00
69982;BME280;57319;56.274;43.980;2023-10-08T00:37:07;95842.44;;;5.04;100.00
69982;BME280;57319;56.274;43.980;2023-10-08T00:39:39;95838.91;;;5.06;100.00
69982;BME280;57319;56.274;43.980;2023-10-08T00:42:06;95837.91;;;5.09;100.00
69982;BME280;57319;56.274;43.980;2023-10-08T00:44:36;95832.75;;;5.10;100.00
69982;BME280;57319;56.274;43.980;2023-10-08T00:47:16;95823.44;;;5.09;100.00
69982;BME280;57319;56.274;43.980;2023-10-08T00:49:42;95825.84;;;5.13;100.00
69982;BME280;57319;56.274;43.980;2023-10-08T00:52:10;95823.13;;;5.16;100.00
69982;BME280;57319;56.274;43.980;2023-10-08T00:54:37;95819.59;;;5.18;100.00
69982;BME280;57319;56.274;43.980;2023-10-08T00:57:25;95819.41;;;5.21;100.00
69982;BME280;57319;56.274;43.980;2023-10-08T00:59:51;95819.16;;;5.26;100.00
69982;BME280;57319;56.274;43.980;2023-10-08T01:02:25;95819.16;;;5.26;100.00
69982;BME280;57319;56.274;43.980;2023-10-08T01:04:54;95823.13;;;5.32;100.00
69982;BME280;57319;56.274;43.980;2023-10-08T01:07:23;95819.81;;;5.30;100.00
69982;BME280;57319;56.274;43.980;2023-10-08T01:09:50;95824.91;;;5.30;100.00
69982;BME280;57319;56.274;43.980;2023-10-08T01:12:22;95815.31;;;5.19;100.00
69982;BME280;57319;56.274;43.980;2023-10-08T01:15:00;95808.97;;;5.26;100.00
69982;BME280;57319;56.274;43.980;2023-10-08T01:17:41;95808.97;;;5.26;100.00
69982;BME280;57319;56.274;43.980;2023-10-08T01:20:16;95801.56;;;5.21;100.00
69982;BME280;57319;56.274;43.980;2023-10-08T01:22:58;95804.03;;;5.23;100.00
69982;BME280;57319;56.274;43.980;2023-10-08T01:25:23;95800.31;;;5.29;100.00
69982;BME280;57319;56.274;43.980;2023-10-08T01:27:55;95794.25;;;5.31;100.00
69982;BME280;57319;56.274;43.980;2023-10-08T01:30:21;95798.44;;;5.32;100.00
69982;BME280;57319;56.274;43.980;2023-10-08T01:32:47;95800.09;;;5.33;100.00
69982;BME280;57319;56.274;43.980;2023-10-08T01:35:13;95799.09;;;5.36;100.00
69982;BME280;57319;56.274;43.980;2023-10-08T01:37:50;95801.47;;;5.39;100.00
69982;BME280;57319;56.274;43.980;2023-10-08T01:40:17;95802.94;;;5.43;100.00
69982;BME280;57319;56.274;43.980;2023-10-08T01:42:44;95795.94;;;5.47;100.00
69982;BME280;57319;56.274;43.980;2023-10-08T01:45:11;95790.84;;;5.47;100.00
69982;BME280;57319;56.274;43.980;2023-10-08T01:47:45;95788.84;;;5.52;100.00
69982;BME280;57319;56.274;43.980;2023-10-08T01:50:10;95787.88;;;5.54;100.00
69982;BME280;57319;56.274;43.980;2023-10-08T01:52:54;95793.72;;;5.56;100.00
69982;BME280;57319;56.274;43.980;2023-10-08T01:55:20;95792.97;;;5.54;100.00
69982;BME280;57319;56.274;43.980;2023-10-08T01:57:49;95787.59;;;5.59;100.00
69982;BME280;57319;56.274;43.980;2023-10-08T02:00:17;95779.81;;;5.62;100.00
69982;BME280;57319;56.274;43.980;2023-10-08T02:02:49;95780.53;;;5.64;100.00
69982;BME280;57319;56.274;43.980;2023-10-08T02:05:16;95777.06;;;5.65;100.00
69982;BME280;57319;56.274;43.980;2023-10-08T02:07:44;95782.88;;;5.67;100.00
69982;BME280;57319;56.274;43.980;2023-10-08T02:10:11;95782.25;;;5.64;100.00
69982;BME280;57319;56.274;43.980;2023-10-08T02:12:37;95789.00;;;5.65;100.00
69982;BME280;57319;56.274;43.980;2023-10-08T02:15:04;95787.84;;;5.70;100.00
69982;BME280;57319;56.274;43.980;2023-10-08T02:17:29;95787.00;;;5.70;100.00
69982;BME280;57319;56.274;43.980;2023-10-08T02:19:55;95787.66;;;5.73;100.00
69982;BME280;57319;56.274;43.980;2023-10-08T02:22:40;95786.84;;;5.73;100.00
69982;BME280;57319;56.274;43.980;2023-10-08T02:25:06;95784.34;;;5.71;100.00
69982;BME280;57319;56.274;43.980;2023-10-08T02:27:34;95785.44;;;5.67;100.00
69982;BME280;57319;56.274;43.980;2023-10-08T02:29:59;95781.28;;;5.66;100.00
69982;BME280;57319;56.274;43.980;2023-10-08T02:32:28;95789.41;;;5.73;100.00
69982;BME280;57319;56.274;43.980;2023-10-08T02:34:54;95788.84;;;5.68;100.00
69982;BME280;57319;56.274;43.980;2023-10-08T02:37:21;95797.38;;;5.67;100.00
69982;BME280;57319;56.274;43.980;2023-10-08T02:39:46;95799.97;;;5.51;100.00
69982;BME280;57319;56.274;43.980;2023-10-08T02:42:12;95791.31;;;5.53;100.00
69982;BME280;57319;56.274;43.980;2023-10-08T02:44:39;95807.47;;;5.54;100.00
69982;BME280;57319;56.274;43.980;2023-10-08T02:47:09;95801.22;;;5.43;100.00
69982;BME280;57319;56.274;43.980;2023-10-08T02:49:37;95802.19;;;5.41;100.00
69982;BME280;57319;56.274;43.980;2023-10-08T02:52:06;95804.69;;;5.26;100.00
69982;BME280;57319;56.274;43.980;2023-10-08T02:54:34;95807.56;;;5.20;100.00
69982;BME280;57319;56.274;43.980;2023-10-08T02:57:02;95812.59;;;5.06;100.00
69982;BME280;57319;56.274;43.980;2023-10-08T02:59:35;95824.50;;;5.05;100.00
69982;BME280;57319;56.274;43.980;2023-10-08T03:02:11;95818.19;;;4.97;100.00
69982;BME280;57319;56.274;43.980;2023-10-08T03:04:48;95825.09;;;4.95;100.00
69982;BME280;57319;56.274;43.980;2023-10-08T03:07:17;95826.41;;;4.86;100.00
69982;BME280;57319;56.274;43.980;2023-10-08T03:09:58;95818.91;;;4.83;100.00
69982;BME280;57319;56.274;43.980;2023-10-08T03:12:44;95825.66;;;4.84;100.00
69982;BME280;57319;56.274;43.980;2023-10-08T03:15:12;95837.47;;;4.85;100.00
69982;BME280;57319;56.274;43.980;2023-10-08T03:17:39;95825.75;;;4.82;100.00
69982;BME280;57319;56.274;43.980;2023-10-08T03:20:15;95829.19;;;4.81;100.00
69982;BME280;57319;56.274;43.980;2023-10-08T03:22:59;95837.31;;;4.72;100.00
69982;BME280;57319;56.274;43.980;2023-10-08T03:25:24;95835.75;;;4.69;100.00
69982;BME280;57319;56.274;43.980;2023-10-08T03:27:52;95845.19;;;4.67;100.00
69982;BME280;57319;56.274;43.980;2023-10-08T03:30:20;95850.66;;;4.59;100.00
69982;BME280;57319;56.274;43.980;2023-10-08T03:32:45;95841.72;;;4.52;100.00
69982;BME280;57319;56.274;43.980;2023-10-08T03:35:16;95843.41;;;4.52;100.00
69982;BME280;57319;56.274;43.980;2023-10-08T03:37:42;95850.78;;;4.40;100.00
69982;BME280;57319;56.274;43.980;2023-10-08T03:40:11;95837.50;;;4.51;100.00
69982;BME280;57319;56.274;43.980;2023-10-08T03:43:06;95851.22;;;4.49;100.00
69982;BME280;57319;56.274;43.980;2023-10-08T03:45:40;95850.31;;;4.50;100.00
69982;BME280;57319;56.274;43.980;2023-10-08T03:48:25;95855.84;;;4.58;100.00
69982;BME280;57319;56.274;43.980;2023-10-08T03:50:50;95852.28;;;4.45;100.00
69982;BME280;57319;56.274;43.980;2023-10-08T03:53:32;95847.41;;;4.57;100.00
69982;BME280;57319;56.274;43.980;2023-10-08T03:56:03;95863.50;;;4.58;100.00
69982;BME280;57319;56.274;43.980;2023-10-08T03:58:31;95864.47;;;4.55;100.00
69982;BME280;57319;56.274;43.980;2023-10-08T04:01:02;95881.56;;;4.53;100.00
69982;BME280;57319;56.274;43.980;2023-10-08T04:03:36;95870.69;;;4.50;100.00
69982;BME280;57319;56.274;43.980;2023-10-08T04:06:22;95878.41;;;4.48;100.00
69982;BME280;57319;56.274;43.980;2023-10-08T04:09:00;95878.78;;;4.40;100.00
69982;BME280;57319;56.274;43.980;2023-10-08T04:11:38;95870.84;;;4.47;100.00
69982;BME280;57319;56.274;43.980;2023-10-08T04:14:20;95894.97;;;4.39;100.00
69982;BME280;57319;56.274;43.980;2023-10-08T04:16:46;95901.09;;;4.35;100.00
69982;BME280;57319;56.274;43.980;2023-10-08T04:19:12;95906.94;;;4.20;100.00
69982;BME280;57319;56.274;43.980;2023-10-08T04:21:39;95888.25;;;4.21;100.00
69982;BME280;57319;56.274;43.980;2023-10-08T04:24:08;95897.53;;;4.22;100.00
69982;BME280;57319;56.274;43.980;2023-10-08T04:26:34;95898.25;;;4.24;100.00
69982;BME280;57319;56.274;43.980;2023-10-08T04:29:01;95894.38;;;4.17;100.00
69982;BME280;57319;56.274;43.980;2023-10-08T04:31:33;95900.44;;;4.14;100.00
69982;BME280;57319;56.274;43.980;2023-10-08T04:34:06;95905.84;;;4.08;100.00
69982;BME280;57319;56.274;43.980;2023-10-08T04:36:57;95900.06;;;4.04;100.00
69982;BME280;57319;56.274;43.980;2023-10-08T04:39:29;95905.16;;;4.04;100.00
69982;BME280;57319;56.274;43.980;2023-10-08T04:42:02;95895.94;;;4.02;100.00
69982;BME280;57319;56.274;43.980;2023-10-08T04:44:32;95897.28;;;4.09;100.00
69982;BME280;57319;56.274;43.980;2023-10-08T04:46:58;95899.56;;;4.15;100.00
69982;BME280;57319;56.274;43.980;2023-10-08T04:49:30;95896.47;;;4.08;99.98
69982;BME280;57319;56.274;43.980;2023-10-08T04:52:00;95898.44;;;4.21;100.00
69982;BME280;57319;56.274;43.980;2023-10-08T04:54:26;95903.44;;;4.22;98.93
69982;BME280;57319;56.274;43.980;2023-10-08T04:56:59;95909.28;;;4.24;97.88
69982;BME280;57319;56.274;43.980;2023-10-08T04:59:26;95925.22;;;4.28;97.70
69982;BME280;57319;56.274;43.980;2023-10-08T05:02:02;95905.81;;;4.25;96.51
69982;BME280;57319;56.274;43.980;2023-10-08T05:04:39;95912.22;;;4.34;97.70
69982;BME280;57319;56.274;43.980;2023-10-08T05:07:25;95897.38;;;4.25;94.73
69982;BME280;57319;56.274;43.980;2023-10-08T05:09:54;95915.31;;;4.39;96.92
69982;BME280;57319;56.274;43.980;2023-10-08T05:12:29;95912.03;;;4.37;95.44
69982;BME280;57319;56.274;43.980;2023-10-08T05:15:11;95924.41;;;4.45;96.45
69982;BME280;57319;56.274;43.980;2023-10-08T05:17:44;95926.88;;;4.47;96.13
69982;BME280;57319;56.274;43.980;2023-10-08T05:20:16;95917.81;;;4.41;94.97
69982;BME280;57319;56.274;43.980;2023-10-08T05:23:01;95929.63;;;4.42;94.15
69982;BME280;57319;56.274;43.980;2023-10-08T05:25:52;95930.00;;;4.52;95.09
69982;BME280;57319;56.274;43.980;2023-10-08T05:28:44;95934.97;;;4.55;94.44
69982;BME280;57319;56.274;43.980;2023-10-08T05:31:48;95943.66;;;4.51;92.38
69982;BME280;57319;56.274;43.980;2023-10-08T05:34:25;95944.03;;;4.61;93.63
69982;BME280;57319;56.274;43.980;2023-10-08T05:36:59;95943.34;;;4.57;92.20
69982;BME280;57319;56.274;43.980;2023-10-08T05:39:30;95944.38;;;4.53;92.16
69982;BME280;57319;56.274;43.980;2023-10-08T05:42:09;95954.97;;;4.45;89.17
69982;BME280;57319;56.274;43.980;2023-10-08T05:44:57;95956.97;;;4.56;90.03
69982;BME280;57319;56.274;43.980;2023-10-08T05:47:32;95951.50;;;4.64;91.18
69982;BME280;57319;56.274;43.980;2023-10-08T05:49:58;95954.31;;;4.75;91.79
69982;BME280;57319;56.274;43.980;2023-10-08T05:52:46;95961.00;;;4.78;91.76
69982;BME280;57319;56.274;43.980;2023-10-08T05:55:30;95964.69;;;4.72;89.10
69982;BME280;57319;56.274;43.980;2023-10-08T05:58:04;95960.88;;;4.63;88.74
69982;BME280;57319;56.274;43.980;2023-10-08T06:00:41;95954.56;;;4.70;89.55
69982;BME280;57319;56.274;43.980;2023-10-08T06:03:17;95956.75;;;4.61;87.11
69982;BME280;57319;56.274;43.980;2023-10-08T06:06:02;95953.00;;;4.68;88.72
69982;BME280;57319;56.274;43.980;2023-10-08T06:08:40;95964.84;;;4.69;88.40
69982;BME280;57319;56.274;43.980;2023-10-08T06:11:35;95977.41;;;4.72;86.69
69982;BME280;57319;56.274;43.980;2023-10-08T06:14:22;95966.97;;;4.76;86.12
69982;BME280;57319;56.274;43.980;2023-10-08T06:17:07;95970.22;;;4.80;86.27
69982;BME280;57319;56.274;43.980;2023-10-08T06:19:50;95971.94;;;4.80;84.14
69982;BME280;57319;56.274;43.980;2023-10-08T06:22:18;95982.66;;;4.86;83.91
69982;BME280;57319;56.274;43.980;2023-10-08T06:24:45;95982.84;;;4.99;84.34
69982;BME280;57319;56.274;43.980;2023-10-08T06:27:12;95985.84;;;5.07;83.23
69982;BME280;57319;56.274;43.980;2023-10-08T06:29:42;95992.53;;;5.26;83.41
69982;BME280;57319;56.274;43.980;2023-10-08T06:32:10;95988.75;;;5.17;82.56
69982;BME280;57319;56.274;43.980;2023-10-08T06:34:37;95987.69;;;5.21;83.19
69982;BME280;57319;56.274;43.980;2023-10-08T06:37:05;95992.41;;;5.29;83.11
69982;BME280;57319;56.274;43.980;2023-10-08T06:39:33;96003.31;;;5.31;83.29
69982;BME280;57319;56.274;43.980;2023-10-08T06:42:15;96003.97;;;5.01;84.05
69982;BME280;57319;56.274;43.980;2023-10-08T06:44:42;96003.22;;;5.17;86.21
69982;BME280;57319;56.274;43.980;2023-10-08T06:47:13;96005.09;;;5.13;85.75
69982;BME280;57319;56.274;43.980;2023-10-08T06:49:42;96002.47;;;5.15;86.17
69982;BME280;57319;56.274;43.980;2023-10-08T06:52:08;95998.97;;;5.00;86.93
69982;BME280;57319;56.274;43.980;2023-10-08T06:54:36;95999.88;;;4.99;87.83
69982;BME280;57319;56.274;43.980;2023-10-08T06:57:02;96010.44;;;5.08;87.91
69982;BME280;57319;56.274;43.980;2023-10-08T06:59:27;96004.50;;;5.08;88.64
69982;BME280;57319;56.274;43.980;2023-10-08T07:01:56;96024.75;;;5.11;87.92
69982;BME280;57319;56.274;43.980;2023-10-08T07:04:24;96013.44;;;4.99;88.40
69982;BME280;57319;56.274;43.980;2023-10-08T07:06:50;96024.09;;;4.90;88.70
69982;BME280;57319;56.274;43.980;2023-10-08T07:09:16;96017.88;;;4.78;90.19
69982;BME280;57319;56.274;43.980;2023-10-08T07:11:49;96021.47;;;4.56;91.03
69982;BME280;57319;56.274;43.980;2023-10-08T07:14:23;96018.28;;;4.34;93.29
69982;BME280;57319;56.274;43.980;2023-10-08T07:16:55;96029.16;;;4.37;94.85
69982;BME280;57319;56.274;43.980;2023-10-08T07:19:25;96018.25;;;4.53;95.18
69982;BME280;57319;56.274;43.980;2023-10-08T07:22:01;96014.56;;;4.58;93.16
69982;BME280;57319;56.274;43.980;2023-10-08T07:24:33;96020.13;;;4.67;93.17
69982;BME280;57319;56.274;43.980;2023-10-08T07:27:03;96023.13;;;4.75;93.00
69982;BME280;57319;56.274;43.980;2023-10-08T07:29:35;96012.03;;;4.76;90.19
69982;BME280;57319;56.274;43.980;2023-10-08T07:32:01;96021.94;;;4.82;89.21
69982;BME280;57319;56.274;43.980;2023-10-08T07:34:36;96029.25;;;4.88;86.66
69982;BME280;57319;56.274;43.980;2023-10-08T07:37:01;96028.66;;;5.01;85.95
69982;BME280;57319;56.274;43.980;2023-10-08T07:39:27;96026.25;;;5.15;85.14
69982;BME280;57319;56.274;43.980;2023-10-08T07:42:09;96030.84;;;5.24;81.71
69982;BME280;57319;56.274;43.980;2023-10-08T07:44:35;96028.09;;;5.29;81.49
69982;BME280;57319;56.274;43.980;2023-10-08T07:47:02;96026.69;;;5.39;80.67
69982;BME280;57319;56.274;43.980;2023-10-08T07:49:35;96038.13;;;5.32;79.83
69982;BME280;57319;56.274;43.980;2023-10-08T07:52:01;96044.13;;;5.31;79.61
69982;BME280;57319;56.274;43.980;2023-10-08T07:54:29;96047.63;;;5.13;79.52
69982;BME280;57319;56.274;43.980;2023-10-08T07:57:02;96041.84;;;5.09;79.73
69982;BME280;57319;56.274;43.980;2023-10-08T07:59:35;96051.91;;;4.95;80.81
69982;BME280;57319;56.274;43.980;2023-10-08T08:02:07;96050.47;;;4.89;81.44
69982;BME280;57319;56.274;43.980;2023-10-08T08:04:40;96056.31;;;4.73;81.88
69982;BME280;57319;56.274;43.980;2023-10-08T08:07:07;96064.78;;;4.74;83.14
69982;BME280;57319;56.274;43.980;2023-10-08T08:09:32;96061.78;;;4.66;83.01
69982;BME280;57319;56.274;43.980;2023-10-08T08:12:06;96064.56;;;4.79;82.35
69982;BME280;57319;56.274;43.980;2023-10-08T08:14:35;96075.41;;;5.00;82.27
69982;BME280;57319;56.274;43.980;2023-10-08T08:17:05;96078.28;;;4.93;81.04
69982;BME280;57319;56.274;43.980;2023-10-08T08:19:47;96071.91;;;5.02;81.40
69982;BME280;57319;56.274;43.980;2023-10-08T08:22:14;96072.13;;;5.15;81.31
69982;BME280;57319;56.274;43.980;2023-10-08T08:27:19;96087.13;;;5.04;80.71
69982;BME280;57319;56.274;43.980;2023-10-08T08:30:01;96082.78;;;4.88;81.22
69982;BME280;57319;56.274;43.980;2023-10-08T08:32:36;96091.03;;;5.11;81.77
69982;BME280;57319;56.274;43.980;2023-10-08T08:35:07;96095.09;;;5.15;81.62
69982;BME280;57319;56.274;43.980;2023-10-08T08:37:34;96105.47;;;5.46;80.17
69982;BME280;57319;56.274;43.980;2023-10-08T08:40:09;96115.06;;;5.58;78.16
69982;BME280;57319;56.274;43.980;2023-10-08T08:42:49;96108.97;;;5.60;78.46
69982;BME280;57319;56.274;43.980;2023-10-08T08:45:20;96100.66;;;5.39;78.19
69982;BME280;57319;56.274;43.980;2023-10-08T08:47:46;96101.16;;;5.64;77.44
69982;BME280;57319;56.274;43.980;2023-10-08T08:50:11;96105.41;;;5.63;77.56
69982;BME280;57319;56.274;43.980;2023-10-08T08:52:38;96109.88;;;5.59;76.23
69982;BME280;57319;56.274;43.980;2023-10-08T08:55:06;96120.16;;;5.58;74.70
69982;BME280;57319;56.274;43.980;2023-10-08T08:57:39;96113.06;;;5.63;75.59
69982;BME280;57319;56.274;43.980;2023-10-08T09:00:08;96110.88;;;6.06;75.87
69982;BME280;57319;56.274;43.980;2023-10-08T09:02:40;96114.44;;;6.20;74.60
69982;BME280;57319;56.274;43.980;2023-10-08T09:05:07;96130.66;;;6.19;73.19
69982;BME280;57319;56.274;43.980;2023-10-08T09:08:02;96119.78;;;6.15;74.56
69982;BME280;57319;56.274;43.980;2023-10-08T09:10:30;96126.91;;;5.92;76.58
69982;BME280;57319;56.274;43.980;2023-10-08T09:13:05;96131.78;;;5.64;82.37
69982;BME280;57319;56.274;43.980;2023-10-08T09:15:32;96136.38;;;5.39;85.87
69982;BME280;57319;56.274;43.980;2023-10-08T09:17:58;96133.69;;;5.25;88.17
69982;BME280;57319;56.274;43.980;2023-10-08T09:20:36;96135.31;;;4.91;87.07
69982;BME280;57319;56.274;43.980;2023-10-08T09:25:38;96130.97;;;4.75;86.83
69982;BME280;57319;56.274;43.980;2023-10-08T09:28:05;96128.03;;;4.66;87.94
69982;BME280;57319;56.274;43.980;2023-10-08T09:30:36;96128.78;;;4.85;88.29
69982;BME280;57319;56.274;43.980;2023-10-08T09:33:09;96129.25;;;4.93;87.17
69982;BME280;57319;56.274;43.980;2023-10-08T09:35:36;96146.72;;;5.01;86.53
69982;BME280;57319;56.274;43.980;2023-10-08T09:38:03;96140.19;;;5.13;86.20
69982;BME280;57319;56.274;43.980;2023-10-08T09:40:29;96140.28;;;5.29;84.98
69982;BME280;57319;56.274;43.980;2023-10-08T09:42:55;96150.34;;;5.32;83.86
69982;BME280;57319;56.274;43.980;2023-10-08T09:45:22;96156.41;;;5.30;80.27
69982;BME280;57319;56.274;43.980;2023-10-08T09:47:58;96144.03;;;5.22;79.61
69982;BME280;57319;56.274;43.980;2023-10-08T09:50:29;96145.06;;;5.35;80.76
69982;BME280;57319;56.274;43.980;2023-10-08T09:53:08;96148.16;;;5.42;79.20
69982;BME280;57319;56.274;43.980;2023-10-08T09:55:37;96154.91;;;5.60;78.83
69982;BME280;57319;56.274;43.980;2023-10-08T09:58:10;96149.81;;;5.76;76.30
69982;BME280;57319;56.274;43.980;2023-10-08T10:00:39;96157.63;;;5.73;76.11
69982;BME280;57319;56.274;43.980;2023-10-08T10:03:08;96153.06;;;5.80;75.11
69982;BME280;57319;56.274;43.980;2023-10-08T10:05:35;96156.63;;;5.93;75.98
69982;BME280;57319;56.274;43.980;2023-10-08T10:08:03;96153.06;;;5.96;74.39
69982;BME280;57319;56.274;43.980;2023-10-08T10:10:36;96152.72;;;6.04;75.28
69982;BME280;57319;56.274;43.980;2023-10-08T10:13:06;96164.13;;;6.14;75.33
69982;BME280;57319;56.274;43.980;2023-10-08T10:15:38;96156.44;;;6.30;75.24
69982;BME280;57319;56.274;43.980;2023-10-08T10:18:14;96160.81;;;6.44;75.22
69982;BME280;57319;56.274;43.980;2023-10-08T10:20:51;96165.13;;;6.59;74.90
69982;BME280;57319;56.274;43.980;2023-10-08T10:26:23;96168.81;;;6.54;73.31
69982;BME280;57319;56.274;43.980;2023-10-08T10:31:52;96167.94;;;6.39;75.08
69982;BME280;57319;56.274;43.980;2023-10-08T10:34:28;96167.09;;;6.22;76.03
69982;BME280;57319;56.274;43.980;2023-10-08T10:36:57;96178.44;;;6.17;76.42
69982;BME280;57319;56.274;43.980;2023-10-08T10:39:28;96190.28;;;6.18;75.49
69982;BME280;57319;56.274;43.980;2023-10-08T10:41:58;96185.66;;;6.08;75.68
69982;BME280;57319;56.274;43.980;2023-10-08T10:44:27;96189.66;;;6.14;75.80
69982;BME280;57319;56.274;43.980;2023-10-08T10:46:55;96191.63;;;6.25;74.18
69982;BME280;57319;56.274;43.980;2023-10-08T10:49:40;96184.66;;;6.44;73.57
69982;BME280;57319;56.274;43.980;2023-10-08T10:52:26;96188.44;;;6.53;70.24
69982;BME280;57319;56.274;43.980;2023-10-08T10:55:10;96201.97;;;6.71;69.62
69982;BME280;57319;56.274;43.980;2023-10-08T10:57:53;96184.81;;;6.73;67.98
69982;BME280;57319;56.274;43.980;2023-10-08T11:00:29;96205.34;;;6.56;68.82
69982;BME280;57319;56.274;43.980;2023-10-08T11:03:01;96201.31;;;6.68;69.01
69982;BME280;57319;56.274;43.980;2023-10-08T11:05:37;96212.25;;;6.70;68.88
69982;BME280;57319;56.274;43.980;2023-10-08T11:08:06;96204.84;;;6.81;68.24
69982;BME280;57319;56.274;43.980;2023-10-08T11:10:36;96218.88;;;6.74;66.82
69982;BME280;57319;56.274;43.980;2023-10-08T11:13:08;96224.53;;;6.63;67.53
69982;BME280;57319;56.274;43.980;2023-10-08T11:15:41;96229.66;;;6.79;66.92
69982;BME280;57319;56.274;43.980;2023-10-08T11:18:11;96222.41;;;6.55;67.60
69982;BME280;57319;56.274;43.980;2023-10-08T11:20:36;96233.03;;;6.48;67.83
69982;BME280;57319;56.274;43.980;2023-10-08T11:23:08;96223.41;;;6.53;68.14
69982;BME280;57319;56.274;43.980;2023-10-08T11:25:56;96232.53;;;6.41;68.18
69982;BME280;57319;56.274;43.980;2023-10-08T11:28:33;96222.94;;;6.28;67.78
69982;BME280;57319;56.274;43.980;2023-10-08T11:31:01;96237.25;;;6.49;68.68
69982;BME280;57319;56.274;43.980;2023-10-08T11:33:37;96234.28;;;6.88;66.32
69982;BME280;57319;56.274;43.980;2023-10-08T11:36:03;96230.13;;;7.34;62.53
69982;BME280;57319;56.274;43.980;2023-10-08T11:38:41;96235.69;;;7.40;61.75
69982;BME280;57319;56.274;43.980;2023-10-08T11:41:11;96241.53;;;7.58;60.76
69982;BME280;57319;56.274;43.980;2023-10-08T11:43:39;96258.16;;;8.10;58.86
69982;BME280;57319;56.274;43.980;2023-10-08T11:46:05;96255.13;;;7.89;60.12
69982;BME280;57319;56.274;43.980;2023-10-08T11:48:30;96249.03;;;8.35;58.66
69982;BME280;57319;56.274;43.980;2023-10-08T11:51:01;96244.38;;;9.12;56.29
69982;BME280;57319;56.274;43.980;2023-10-08T11:53:30;96246.47;;;9.60;54.36
69982;BME280;57319;56.274;43.980;2023-10-08T11:55:56;96246.31;;;8.67;55.32
69982;BME280;57319;56.274;43.980;2023-10-08T11:58:22;96275.41;;;7.78;58.39
69982;BME280;57319;56.274;43.980;2023-10-08T12:01:02;96271.22;;;6.99;61.20
69982;BME280;57319;56.274;43.980;2023-10-08T12:03:29;96279.09;;;6.62;62.36
69982;BME280;57319;56.274;43.980;2023-10-08T12:05:54;96278.75;;;6.36;63.33
69982;BME280;57319;56.274;43.980;2023-10-08T12:08:24;96277.59;;;6.42;64.41
69982;BME280;57319;56.274;43.980;2023-10-08T12:10:53;96278.75;;;6.52;65.29
69982;BME280;57319;56.274;43.980;2023-10-08T12:13:21;96277.00;;;6.37;64.74
69982;BME280;57319;56.274;43.980;2023-10-08T12:15:53;96267.88;;;6.15;65.33
69982;BME280;57319;56.274;43.980;2023-10-08T12:18:31;96286.06;;;5.91;66.44
69982;BME280;57319;56.274;43.980;2023-10-08T12:21:00;96296.56;;;5.85;66.94
69982;BME280;57319;56.274;43.980;2023-10-08T12:23:26;96299.72;;;5.73;67.17
69982;BME280;57319;56.274;43.980;2023-10-08T12:25:57;96302.03;;;5.60;68.70
69982;BME280;57319;56.274;43.980;2023-10-08T12:28:23;96319.69;;;5.65;72.67
69982;BME280;57319;56.274;43.980;2023-10-08T12:30:50;96304.44;;;5.26;75.17
69982;BME280;57319;56.274;43.980;2023-10-08T12:33:21;96301.44;;;4.99;75.23
69982;BME280;57319;56.274;43.980;2023-10-08T12:35:48;96310.53;;;5.05;76.01
69982;BME280;57319;56.274;43.980;2023-10-08T12:38:14;96309.34;;;5.12;75.77
69982;BME280;57319;56.274;43.980;2023-10-08T12:40:42;96319.28;;;4.99;76.40
69982;BME280;57319;56.274;43.980;2023-10-08T12:43:15;96310.06;;;4.97;76.50
69982;BME280;57319;56.274;43.980;2023-10-08T12:45:47;96322.16;;;4.72;77.55
69982;BME280;57319;56.274;43.980;2023-10-08T12:48:23;96328.22;;;4.51;77.38
69982;BME280;57319;56.274;43.980;2023-10-08T12:50:55;96337.78;;;4.65;78.98
69982;BME280;57319;56.274;43.980;2023-10-08T12:53:27;96335.81;;;4.71;79.24
69982;BME280;57319;56.274;43.980;2023-10-08T12:56:00;96329.94;;;4.69;79.26
69982;BME280;57319;56.274;43.980;2023-10-08T12:58:31;96334.53;;;4.61;78.73
69982;BME280;57319;56.274;43.980;2023-10-08T13:01:00;96344.44;;;4.48;79.16
69982;BME280;57319;56.274;43.980;2023-10-08T13:03:29;96341.25;;;4.43;77.60
69982;BME280;57319;56.274;43.980;2023-10-08T13:05:59;96341.56;;;4.35;77.81
69982;BME280;57319;56.274;43.980;2023-10-08T13:08:31;96355.47;;;4.28;77.61
69982;BME280;57319;56.274;43.980;2023-10-08T13:10:58;96350.22;;;4.11;77.80
69982;BME280;57319;56.274;43.980;2023-10-08T13:13:32;96351.72;;;4.16;78.16
69982;BME280;57319;56.274;43.980;2023-10-08T13:15:58;96351.09;;;4.11;78.29
69982;BME280;57319;56.274;43.980;2023-10-08T13:18:26;96357.56;;;4.18;77.61
69982;BME280;57319;56.274;43.980;2023-10-08T13:20:52;96358.28;;;4.22;77.83
69982;BME280;57319;56.274;43.980;2023-10-08T13:23:18;96365.91;;;4.22;77.99
69982;BME280;57319;56.274;43.980;2023-10-08T13:25:49;96361.84;;;4.18;78.21
69982;BME280;57319;56.274;43.980;2023-10-08T13:28:21;96359.16;;;4.21;78.36
69982;BME280;57319;56.274;43.980;2023-10-08T13:30:51;96364.81;;;4.28;78.23
69982;BME280;57319;56.274;43.980;2023-10-08T13:33:21;96364.13;;;4.24;78.08